Cossayuna Lake, New York
Current Conditions -  °F | °C
As of 1:53 AM on Monday 22 Dec 2014 (Local Time) from KGFL Reporting Station
Overcast Overcast  
Wind Chill: 27°   Ceiling: 3900
Heat Index: 27°   Visibility: 9mi
Dew Point: 22°   Wind: 3mph
Humidity: 81%   Direction: 70°ENE
Pressure: 30.37"   Gusts: NA
Location:  43.176°N, 73.4081°W
Report Text: KGFL 220653Z AUTO 07003KT 9SM OVC039 M03/M06 A3037 RMK AO2 SLP294 T10281056
Loading
Personal Weather Stations






























Interactive Weather Map New forecast layout! Learn more

10-Day Weather Forecast

Advertisements
Track Severe Weather on mobile